createdAt,value
2022-09-11T00:01:58.731Z,13.30
2022-09-11T00:04:27.812Z,13.17
2022-09-11T00:06:59.591Z,13.83
2022-09-11T00:09:29.593Z,12.73
2022-09-11T00:11:58.330Z,13.67
2022-09-11T00:14:28.323Z,12.43
2022-09-11T00:16:59.800Z,13.23
2022-09-11T00:19:28.320Z,12.17
2022-09-11T00:21:57.539Z,12.83
2022-09-11T00:24:26.357Z,13.87
2022-09-11T00:27:01.292Z,12.83
2022-09-11T00:29:32.654Z,12.77
2022-09-11T00:32:01.028Z,12.23
2022-09-11T00:34:29.587Z,13.00
2022-09-11T00:36:59.560Z,11.40
2022-09-11T00:39:27.967Z,13.03
2022-09-11T00:41:58.464Z,12.90
2022-09-11T00:45:01.966Z,12.33
2022-09-11T00:47:33.391Z,12.27
2022-09-11T00:50:11.430Z,12.93
2022-09-11T00:52:44.636Z,12.90
2022-09-11T00:55:16.316Z,12.50
2022-09-11T00:57:52.170Z,14.23
2022-09-11T01:00:21.321Z,13.53
2022-09-11T01:02:53.752Z,12.87
2022-09-11T01:05:23.967Z,13.10
2022-09-11T01:07:54.935Z,11.90
2022-09-11T01:10:35.507Z,12.33
2022-09-11T01:13:18.750Z,11.77
2022-09-11T01:15:54.675Z,11.77
2022-09-11T01:18:28.592Z,12.13
2022-09-11T01:21:20.065Z,12.10
2022-09-11T01:24:10.564Z,11.60
2022-09-11T01:26:55.716Z,12.07
2022-09-11T01:29:31.068Z,12.17
2022-09-11T01:32:17.511Z,10.97
2022-09-11T01:34:54.503Z,13.30
2022-09-11T01:37:28.545Z,12.67
2022-09-11T01:40:03.415Z,10.80
2022-09-11T01:42:35.051Z,11.10
2022-09-11T01:45:07.438Z,9.27
2022-09-11T01:47:38.432Z,10.47
2022-09-11T01:50:11.679Z,10.23
2022-09-11T01:52:47.575Z,10.47
2022-09-11T01:55:22.061Z,10.20
2022-09-11T01:57:56.491Z,10.13
2022-09-11T02:00:28.917Z,10.40
2022-09-11T02:03:05.479Z,11.27
2022-09-11T02:05:37.845Z,10.10
2022-09-11T02:08:14.078Z,10.97
2022-09-11T02:10:49.102Z,10.73
2022-09-11T02:13:27.828Z,10.43
2022-09-11T02:16:06.954Z,10.30
2022-09-11T02:18:43.200Z,10.53
2022-09-11T02:21:13.618Z,10.83
2022-09-11T02:23:42.675Z,10.40
2022-09-11T02:26:12.533Z,10.50
2022-09-11T02:28:40.706Z,10.00
2022-09-11T02:31:11.277Z,10.23
2022-09-11T02:33:39.750Z,10.90
2022-09-11T02:36:28.466Z,9.80
2022-09-11T02:39:13.355Z,10.57
2022-09-11T02:42:00.941Z,10.93
2022-09-11T02:44:38.192Z,10.67
2022-09-11T02:47:20.965Z,9.67
2022-09-11T02:50:05.536Z,10.30
2022-09-11T02:52:47.858Z,11.53
2022-09-11T02:55:23.927Z,12.00
2022-09-11T02:58:02.301Z,12.77
2022-09-11T03:00:31.458Z,11.27
2022-09-11T03:03:02.624Z,12.30
2022-09-11T03:05:31.874Z,12.77
2022-09-11T03:08:00.395Z,13.87
2022-09-11T03:10:32.262Z,13.57
2022-09-11T03:13:00.589Z,13.40
2022-09-11T03:15:29.205Z,14.03
2022-09-11T03:17:58.047Z,13.97
2022-09-11T03:20:28.017Z,13.20
2022-09-11T03:22:56.828Z,13.27
2022-09-11T03:25:28.407Z,12.97
2022-09-11T03:27:56.758Z,13.53
2022-09-11T03:30:27.319Z,15.53
2022-09-11T03:32:58.692Z,12.83
2022-09-11T03:35:30.215Z,13.20
2022-09-11T03:38:04.185Z,14.20
2022-09-11T03:40:33.659Z,15.07
2022-09-11T03:43:02.934Z,15.30
2022-09-11T03:45:32.778Z,14.13
2022-09-11T03:48:01.533Z,13.90
2022-09-11T03:50:31.716Z,14.73
2022-09-11T03:53:00.769Z,14.10
2022-09-11T03:55:29.910Z,14.73
2022-09-11T03:57:59.237Z,14.77
2022-09-11T04:00:27.999Z,15.50
2022-09-11T04:02:58.032Z,14.77
2022-09-11T04:05:26.956Z,15.97
2022-09-11T04:07:56.952Z,14.67
2022-09-11T04:10:25.224Z,16.33
2022-09-11T04:12:53.629Z,15.37
2022-09-11T04:15:22.570Z,16.90
2022-09-11T04:17:51.147Z,17.63
2022-09-11T04:20:22.095Z,17.97
2022-09-11T04:22:51.192Z,16.57
2022-09-11T04:25:21.410Z,17.83
2022-09-11T04:27:49.871Z,17.43
2022-09-11T04:30:18.579Z,19.13
2022-09-11T04:32:48.024Z,19.23
2022-09-11T04:35:19.424Z,18.80
2022-09-11T04:37:48.459Z,18.20
2022-09-11T04:40:16.781Z,19.47
2022-09-11T04:42:46.963Z,18.93
2022-09-11T04:45:16.367Z,19.03
2022-09-11T04:47:48.468Z,19.37
2022-09-11T04:50:17.093Z,18.90
2022-09-11T04:52:47.826Z,19.67
2022-09-11T04:55:17.202Z,18.93
2022-09-11T04:57:49.827Z,20.70
2022-09-11T05:00:19.070Z,21.53
2022-09-11T05:02:49.731Z,22.43
2022-09-11T05:05:18.159Z,19.37
2022-09-11T05:07:49.456Z,22.60
2022-09-11T05:10:17.904Z,20.53
2022-09-11T05:12:47.779Z,22.37
2022-09-11T05:15:19.830Z,23.43
2022-09-11T05:17:49.032Z,20.77
2022-09-11T05:20:17.793Z,21.80
2022-09-11T05:22:47.296Z,21.93
2022-09-11T05:25:15.804Z,24.77
2022-09-11T05:27:43.929Z,24.23
2022-09-11T05:30:15.848Z,21.67
2022-09-11T05:32:44.569Z,24.20
2022-09-11T05:35:13.003Z,25.97
2022-09-11T05:37:41.630Z,28.27
2022-09-11T05:40:11.265Z,26.57
2022-09-11T05:42:45.216Z,25.63
2022-09-11T05:45:16.012Z,24.93
2022-09-11T05:47:46.312Z,26.70
2022-09-11T05:50:14.941Z,26.70
2022-09-11T05:52:43.383Z,25.57
2022-09-11T05:55:11.868Z,28.70
2022-09-11T05:57:42.543Z,31.17
2022-09-11T06:00:13.436Z,29.20
2022-09-11T06:02:45.538Z,33.63
2022-09-11T06:05:14.147Z,32.80
2022-09-11T06:07:42.637Z,33.40
2022-09-11T06:10:11.672Z,32.77
2022-09-11T06:12:39.967Z,33.67
2022-09-11T06:15:24.867Z,34.20
2022-09-11T06:18:02.797Z,33.87
2022-09-11T06:20:32.757Z,31.47
2022-09-11T06:23:02.639Z,32.33
2022-09-11T06:25:32.629Z,31.60
2022-09-11T06:28:01.139Z,30.63
2022-09-11T06:30:30.023Z,31.17
2022-09-11T06:33:00.628Z,28.63
2022-09-11T06:35:29.048Z,33.43
2022-09-11T06:37:57.453Z,38.33
2022-09-11T06:40:27.575Z,32.53
2022-09-11T06:42:56.062Z,34.27
2022-09-11T06:45:26.297Z,36.80
2022-09-11T06:47:56.418Z,35.60
2022-09-11T06:50:28.377Z,33.37
2022-09-11T06:52:56.645Z,41.77
2022-09-11T06:55:24.730Z,37.40
2022-09-11T06:57:52.861Z,33.70
2022-09-11T07:00:21.386Z,36.60
2022-09-11T07:02:53.193Z,35.17
2022-09-11T07:05:23.658Z,35.73
2022-09-11T07:07:55.958Z,34.73
2022-09-11T07:10:24.841Z,37.70
2022-09-11T07:12:55.611Z,36.33
2022-09-11T07:15:23.960Z,38.03
2022-09-11T07:17:52.382Z,36.93
2022-09-11T07:20:20.971Z,39.90
2022-09-11T07:22:49.090Z,37.53
2022-09-11T07:25:19.040Z,38.40
2022-09-11T07:27:47.411Z,39.20
2022-09-11T07:30:16.087Z,42.83
2022-09-11T07:32:45.360Z,35.73
2022-09-11T07:35:21.608Z,38.43
2022-09-11T07:37:51.037Z,35.53
2022-09-11T07:40:21.473Z,34.30
2022-09-11T07:42:51.480Z,36.90
2022-09-11T07:45:22.550Z,36.00
2022-09-11T07:47:51.122Z,35.63
2022-09-11T07:50:19.328Z,35.00
2022-09-11T07:52:48.610Z,34.83
2022-09-11T07:55:17.157Z,33.20
2022-09-11T07:57:50.810Z,31.53
2022-09-11T08:00:20.311Z,34.23
2022-09-11T08:02:48.994Z,33.07
2022-09-11T08:05:18.822Z,35.17
2022-09-11T08:07:47.160Z,31.23
2022-09-11T08:10:27.306Z,34.63
2022-09-11T08:13:00.286Z,34.50
2022-09-11T08:15:31.578Z,33.17
2022-09-11T08:18:00.966Z,32.93
2022-09-11T08:20:29.151Z,34.67
2022-09-11T08:22:57.341Z,32.83
2022-09-11T08:25:25.511Z,31.90
2022-09-11T08:27:53.929Z,28.27
2022-09-11T08:30:24.005Z,31.33
2022-09-11T08:32:52.149Z,28.23
2022-09-11T08:35:20.706Z,30.50
2022-09-11T08:37:52.884Z,29.77
2022-09-11T08:40:24.232Z,29.40
2022-09-11T08:42:56.059Z,27.23
2022-09-11T08:45:30.130Z,26.83
2022-09-11T08:48:00.967Z,26.80
2022-09-11T08:50:36.251Z,25.13
2022-09-11T08:53:09.721Z,22.23
2022-09-11T08:55:46.747Z,23.70
2022-09-11T08:58:22.357Z,22.17
2022-09-11T09:00:59.528Z,26.03
2022-09-11T09:03:43.287Z,22.23
2022-09-11T09:06:26.423Z,20.30
2022-09-11T09:09:04.040Z,18.50
2022-09-11T09:11:42.080Z,19.80
2022-09-11T09:14:34.130Z,20.30
2022-09-11T09:17:06.908Z,25.67
2022-09-11T09:19:40.061Z,21.20
2022-09-11T09:22:17.583Z,15.83
2022-09-11T09:24:50.527Z,17.97
2022-09-11T09:27:23.374Z,18.67
2022-09-11T09:29:58.207Z,18.47
2022-09-11T09:32:46.365Z,17.63
2022-09-11T09:35:19.736Z,15.37
2022-09-11T09:37:48.851Z,20.10
2022-09-11T09:40:19.353Z,16.97
2022-09-11T09:43:12.309Z,16.43
2022-09-11T09:45:50.084Z,18.60
2022-09-11T09:48:20.950Z,16.63
2022-09-11T09:50:49.405Z,15.53
2022-09-11T09:53:32.734Z,15.63
2022-09-11T09:56:01.972Z,18.33
2022-09-11T09:58:36.324Z,16.27
2022-09-11T10:01:04.969Z,18.67
2022-09-11T10:03:35.266Z,14.40
2022-09-11T10:06:10.267Z,16.77
2022-09-11T10:08:39.665Z,16.67
2022-09-11T10:11:12.336Z,15.60
2022-09-11T10:13:44.360Z,16.33
2022-09-11T10:16:22.135Z,17.03
2022-09-11T10:18:53.609Z,15.40
2022-09-11T10:21:25.447Z,14.23
2022-09-11T10:23:57.156Z,14.97
2022-09-11T10:26:30.516Z,15.07
2022-09-11T10:29:07.292Z,15.53
2022-09-11T10:31:37.475Z,17.47
2022-09-11T10:34:08.372Z,16.53
2022-09-11T10:36:36.955Z,18.00
2022-09-11T10:39:06.471Z,18.23
2022-09-11T10:41:36.469Z,14.23
2022-09-11T10:44:08.092Z,13.23
2022-09-11T10:46:40.862Z,15.63
2022-09-11T10:49:19.693Z,15.53
2022-09-11T10:52:06.158Z,15.73
2022-09-11T10:55:00.316Z,14.40
2022-09-11T10:57:33.732Z,13.27
2022-09-11T11:00:09.448Z,13.53
2022-09-11T11:02:41.337Z,15.00
2022-09-11T11:05:21.318Z,12.17
2022-09-11T11:08:13.643Z,10.53
2022-09-11T11:10:59.736Z,11.63
2022-09-11T11:13:43.173Z,11.87
2022-09-11T11:16:25.746Z,13.73
2022-09-11T11:19:10.983Z,14.77
2022-09-11T11:21:53.484Z,12.30
2022-09-11T11:24:35.790Z,10.83
2022-09-11T11:27:33.509Z,9.73
2022-09-11T11:30:11.418Z,11.60
2022-09-11T11:32:58.490Z,7.57
2022-09-11T11:35:36.193Z,9.38
2022-09-11T11:38:16.753Z,9.20
2022-09-11T11:40:49.599Z,9.73
2022-09-11T11:43:24.957Z,13.50
2022-09-11T11:45:59.640Z,9.87
2022-09-11T11:48:37.088Z,9.90
2022-09-11T11:51:10.267Z,10.90
2022-09-11T11:53:48.799Z,11.47
2022-09-11T11:56:27.607Z,11.17
2022-09-11T11:59:04.329Z,10.60
2022-09-11T12:01:40.347Z,10.27
2022-09-11T12:04:20.281Z,9.37
2022-09-11T12:06:49.037Z,10.45
2022-09-11T12:09:20.748Z,11.15
2022-09-11T12:11:53.240Z,7.90
2022-09-11T12:14:29.161Z,7.50
2022-09-11T12:16:58.561Z,8.05
2022-09-11T12:19:27.149Z,7.07
2022-09-11T12:22:16.141Z,7.68
2022-09-11T12:25:32.466Z,8.77
2022-09-11T12:28:21.343Z,8.82
2022-09-11T12:31:02.186Z,9.75
2022-09-11T12:33:58.550Z,9.07
2022-09-11T12:36:51.732Z,8.38
2022-09-11T12:39:27.966Z,9.43
2022-09-11T12:42:29.388Z,10.02
2022-09-11T12:45:01.466Z,6.35
2022-09-11T12:47:36.928Z,7.40
2022-09-11T12:50:17.546Z,8.77
2022-09-11T12:52:52.190Z,7.40
2022-09-11T12:55:33.456Z,7.28
2022-09-11T12:58:05.477Z,8.90
2022-09-11T13:00:40.965Z,7.88
2022-09-11T13:03:19.186Z,6.57
2022-09-11T13:05:55.648Z,5.63
2022-09-11T13:08:27.864Z,6.85
2022-09-11T13:11:36.427Z,5.67
2022-09-11T13:14:09.247Z,6.93
2022-09-11T13:16:50.772Z,5.20
2022-09-11T13:19:20.921Z,5.68
2022-09-11T13:21:56.953Z,6.10
2022-09-11T13:24:26.819Z,4.35
2022-09-11T13:27:00.763Z,4.90
2022-09-11T13:29:30.860Z,5.00
2022-09-11T13:32:11.566Z,7.75
2022-09-11T13:34:40.754Z,6.60
2022-09-11T13:37:11.318Z,5.72
2022-09-11T13:39:43.001Z,5.60
2022-09-11T13:42:16.859Z,4.57
2022-09-11T13:44:47.816Z,4.95
2022-09-11T13:47:22.098Z,4.30
2022-09-11T13:49:53.500Z,6.18
2022-09-11T13:52:24.820Z,5.10
2022-09-11T13:54:55.945Z,5.10
2022-09-11T13:57:26.447Z,5.13
2022-09-11T13:59:57.181Z,5.78
2022-09-11T14:02:54.065Z,4.70
2022-09-11T14:05:26.402Z,6.55
2022-09-11T14:08:01.743Z,8.23
2022-09-11T14:10:35.645Z,6.75
2022-09-11T14:13:15.290Z,6.72
2022-09-11T14:15:52.219Z,6.53
2022-09-11T14:18:33.920Z,6.68
2022-09-11T14:21:07.868Z,5.72
2022-09-11T14:23:44.097Z,6.22
2022-09-11T14:26:17.138Z,8.48
2022-09-11T14:29:02.555Z,6.18
2022-09-11T14:31:35.893Z,7.30
2022-09-11T14:34:19.561Z,5.82
2022-09-11T14:36:53.574Z,6.20
2022-09-11T14:39:36.512Z,7.28
2022-09-11T14:42:09.438Z,8.25
2022-09-11T14:44:39.634Z,6.93
2022-09-11T14:47:16.465Z,6.10
2022-09-11T14:49:47.175Z,6.75
2022-09-11T14:52:19.775Z,7.30
2022-09-11T14:54:51.615Z,5.45
2022-09-11T14:57:23.166Z,7.28
2022-09-11T14:59:54.462Z,6.78
2022-09-11T15:02:25.829Z,5.85
2022-09-11T15:04:57.996Z,5.60
2022-09-11T15:07:29.202Z,5.53
2022-09-11T15:09:57.839Z,5.15
2022-09-11T15:12:29.471Z,5.20
2022-09-11T15:14:59.413Z,5.60
2022-09-11T15:17:31.975Z,5.72
2022-09-11T15:20:02.611Z,5.25
2022-09-11T15:22:35.386Z,4.93
2022-09-11T15:25:03.856Z,4.80
2022-09-11T15:27:32.294Z,5.28
2022-09-11T15:30:00.799Z,4.70
2022-09-11T15:32:29.316Z,5.47
2022-09-11T15:34:57.537Z,5.00
2022-09-11T15:37:27.700Z,7.07
2022-09-11T15:39:56.408Z,4.40
2022-09-11T15:42:25.658Z,4.85
2022-09-11T15:44:54.562Z,4.80
2022-09-11T15:47:23.190Z,3.95
2022-09-11T15:49:51.818Z,4.20
2022-09-11T15:52:20.407Z,5.13
2022-09-11T15:54:51.120Z,3.92
2022-09-11T15:57:19.958Z,4.57
2022-09-11T15:59:50.164Z,6.07
2022-09-11T16:02:18.921Z,4.90
2022-09-11T16:04:51.647Z,4.68
2022-09-11T16:07:22.417Z,3.80
2022-09-11T16:09:52.782Z,4.80
2022-09-11T16:12:24.495Z,4.03
2022-09-11T16:14:52.830Z,4.65
2022-09-11T16:17:23.264Z,4.07
2022-09-11T16:19:55.250Z,4.88
2022-09-11T16:22:25.892Z,4.57
2022-09-11T16:24:56.548Z,4.75
2022-09-11T16:27:26.018Z,4.43
2022-09-11T16:30:39.204Z,6.40
2022-09-11T16:32:45.443Z,4.90
2022-09-11T16:35:15.682Z,5.13
2022-09-11T16:37:44.394Z,4.72
2022-09-11T16:40:16.986Z,3.90
2022-09-11T16:42:46.709Z,4.60
2022-09-11T16:45:16.075Z,5.20
2022-09-11T16:47:44.784Z,4.65
2022-09-11T16:50:13.356Z,5.30
2022-09-11T16:52:41.394Z,5.20
2022-09-11T16:55:11.702Z,4.72
2022-09-11T16:57:41.680Z,4.35
2022-09-11T17:00:14.712Z,4.30
2022-09-11T17:02:43.099Z,4.15
2022-09-11T17:05:12.459Z,3.70
2022-09-11T17:07:45.632Z,4.53
2022-09-11T17:10:15.507Z,4.75
2022-09-11T17:12:45.270Z,3.33
2022-09-11T17:15:13.568Z,4.47
2022-09-11T17:17:43.872Z,5.10
2022-09-11T17:20:13.323Z,4.40
2022-09-11T17:22:41.879Z,3.60
2022-09-11T17:25:12.128Z,3.72
2022-09-11T17:27:40.497Z,3.75
2022-09-11T17:30:17.093Z,5.75
2022-09-11T17:32:45.905Z,6.18
2022-09-11T17:35:14.876Z,10.15
2022-09-11T17:37:46.203Z,5.63
2022-09-11T17:40:15.249Z,5.22
2022-09-11T17:42:43.901Z,5.35
2022-09-11T17:45:15.777Z,5.00
2022-09-11T17:47:44.494Z,4.20
2022-09-11T17:50:15.198Z,4.37
2022-09-11T17:52:43.674Z,5.88
2022-09-11T17:55:12.054Z,5.03
2022-09-11T17:57:44.505Z,5.73
2022-09-11T18:00:17.064Z,5.13
2022-09-11T18:02:46.814Z,5.37
2022-09-11T18:05:17.608Z,5.43
2022-09-11T18:07:48.391Z,7.93
2022-09-11T18:10:16.796Z,6.80
2022-09-11T18:12:45.138Z,5.30
2022-09-11T18:15:16.018Z,5.20
2022-09-11T18:17:48.184Z,5.60
2022-09-11T18:20:18.133Z,6.40
2022-09-11T18:22:46.215Z,6.10
2022-09-11T18:25:17.453Z,6.87
2022-09-11T18:27:49.956Z,5.30
2022-09-11T18:30:20.957Z,5.20
2022-09-11T18:32:50.021Z,6.50
2022-09-11T18:35:19.066Z,4.80
2022-09-11T18:37:49.316Z,4.43
2022-09-11T18:40:18.257Z,7.30
2022-09-11T18:42:46.864Z,7.23
2022-09-11T18:45:18.998Z,5.07
2022-09-11T18:47:53.288Z,5.73
2022-09-11T18:50:24.323Z,6.23
2022-09-11T18:52:54.865Z,6.10
2022-09-11T18:55:24.575Z,5.57
2022-09-11T18:57:55.638Z,7.53
2022-09-11T19:00:24.032Z,7.13
2022-09-11T19:02:57.269Z,5.57
2022-09-11T19:05:26.559Z,8.13
2022-09-11T19:08:04.182Z,5.70
2022-09-11T19:10:32.651Z,5.57
2022-09-11T19:13:01.281Z,8.10
2022-09-11T19:15:31.880Z,5.40
2022-09-11T19:18:02.424Z,6.63
2022-09-11T19:20:31.163Z,6.20
2022-09-11T19:23:02.912Z,4.63
2022-09-11T19:25:31.906Z,5.83
2022-09-11T19:28:00.413Z,8.00
2022-09-11T19:30:29.475Z,5.93
2022-09-11T19:32:57.703Z,5.73
2022-09-11T19:35:30.176Z,9.40
2022-09-11T19:38:00.272Z,7.43
2022-09-11T19:40:28.536Z,5.53
2022-09-11T19:42:57.850Z,7.83
2022-09-11T19:45:27.952Z,5.20
2022-09-11T19:48:00.223Z,7.03
2022-09-11T19:50:34.054Z,6.07
2022-09-11T19:53:04.149Z,5.30
2022-09-11T19:55:35.410Z,7.10
2022-09-11T19:58:04.956Z,7.13
2022-09-11T20:00:33.562Z,8.53
2022-09-11T20:03:02.742Z,6.47
2022-09-11T20:05:34.298Z,6.63
2022-09-11T20:08:03.997Z,7.10
2022-09-11T20:10:32.442Z,10.97
2022-09-11T20:13:01.146Z,5.93
2022-09-11T20:15:29.674Z,7.23
2022-09-11T20:17:57.981Z,7.70
2022-09-11T20:20:26.674Z,5.30
2022-09-11T20:23:00.461Z,7.77
2022-09-11T20:25:29.295Z,7.77
2022-09-11T20:27:57.931Z,6.53
2022-09-11T20:30:27.218Z,6.23
2022-09-11T20:32:57.572Z,7.17
2022-09-11T20:35:27.533Z,8.10
2022-09-11T20:37:57.993Z,6.17
2022-09-11T20:40:27.650Z,7.43
2022-09-11T20:42:56.043Z,6.17
2022-09-11T20:45:24.392Z,5.80
2022-09-11T20:48:00.484Z,7.07
2022-09-11T20:50:29.487Z,6.07
2022-09-11T20:53:00.504Z,8.07
2022-09-11T20:55:31.910Z,8.37
2022-09-11T20:58:00.768Z,6.70
2022-09-11T21:00:30.808Z,8.50
2022-09-11T21:03:01.271Z,8.90
2022-09-11T21:05:29.499Z,6.53
2022-09-11T21:08:00.712Z,7.43
2022-09-11T21:10:29.282Z,7.17
2022-09-11T21:12:58.697Z,7.67
2022-09-11T21:15:27.176Z,6.17
2022-09-11T21:17:55.198Z,7.33
2022-09-11T21:20:24.128Z,7.10
2022-09-11T21:22:52.634Z,6.70
2022-09-11T21:25:22.618Z,6.00
2022-09-11T21:27:51.225Z,7.03
2022-09-11T21:30:19.880Z,6.67
2022-09-11T21:32:48.280Z,7.13
2022-09-11T21:35:17.276Z,6.70
2022-09-11T21:37:53.193Z,6.23
2022-09-11T21:40:25.739Z,6.33
2022-09-11T21:42:54.222Z,8.10
2022-09-11T21:45:23.100Z,7.13
2022-09-11T21:47:54.443Z,6.53
2022-09-11T21:50:23.575Z,7.40
2022-09-11T21:52:52.237Z,6.73
2022-09-11T21:55:21.848Z,7.97
2022-09-11T21:57:51.765Z,7.30
2022-09-11T22:00:21.275Z,7.33
2022-09-11T22:02:49.908Z,7.33
2022-09-11T22:05:20.827Z,6.57
2022-09-11T22:07:49.409Z,7.13
2022-09-11T22:10:18.272Z,6.47
2022-09-11T22:12:46.936Z,7.63
2022-09-11T22:15:17.272Z,8.17
2022-09-11T22:17:46.949Z,6.60
2022-09-11T22:20:15.372Z,5.70
2022-09-11T22:22:44.180Z,6.13
2022-09-11T22:25:12.737Z,6.33
2022-09-11T22:27:41.049Z,6.90
2022-09-11T22:30:10.151Z,6.50
2022-09-11T22:32:46.264Z,7.63
2022-09-11T22:35:15.303Z,6.87
2022-09-11T22:37:44.795Z,7.50
2022-09-11T22:40:13.219Z,8.90
2022-09-11T22:42:43.103Z,9.20
2022-09-11T22:45:12.146Z,7.10
2022-09-11T22:47:40.717Z,8.07
2022-09-11T22:50:11.832Z,5.87
2022-09-11T22:52:40.600Z,5.53
2022-09-11T22:55:12.344Z,7.40
2022-09-11T22:57:40.758Z,6.23
2022-09-11T23:00:12.231Z,6.50
2022-09-11T23:02:40.940Z,6.70
2022-09-11T23:05:28.358Z,7.40
2022-09-11T23:07:56.435Z,6.63
2022-09-11T23:10:27.250Z,7.00
2022-09-11T23:12:55.881Z,6.27
2022-09-11T23:15:24.251Z,6.63
2022-09-11T23:17:52.383Z,8.10
2022-09-11T23:20:22.542Z,5.07
2022-09-11T23:22:51.193Z,8.27
2022-09-11T23:25:21.805Z,6.33
2022-09-11T23:27:50.488Z,6.43
2022-09-11T23:30:19.479Z,10.50
2022-09-11T23:32:47.906Z,6.23
2022-09-11T23:35:17.113Z,7.50
2022-09-11T23:37:46.915Z,6.00
2022-09-11T23:40:16.130Z,8.63
2022-09-11T23:42:47.078Z,7.13
2022-09-11T23:45:16.824Z,6.53
2022-09-11T23:47:45.144Z,6.37
2022-09-11T23:50:13.837Z,6.20
2022-09-11T23:52:42.192Z,7.30
2022-09-11T23:55:12.981Z,7.30
2022-09-11T23:57:41.289Z,7.13
